sensor_id;sensor_type;location;lat;lon;timestamp;P1;durP1;ratioP1;P2;durP2;ratioP2
37299;SDS011;23184;51.902;12.836;2023-08-06T00:01:48;6.60;;;4.18;;
37299;SDS011;23184;51.902;12.836;2023-08-06T00:04:14;10.48;;;4.32;;
37299;SDS011;23184;51.902;12.836;2023-08-06T00:06:39;8.48;;;4.43;;
37299;SDS011;23184;51.902;12.836;2023-08-06T00:09:05;7.65;;;4.35;;
37299;SDS011;23184;51.902;12.836;2023-08-06T00:11:30;8.57;;;4.53;;
37299;SDS011;23184;51.902;12.836;2023-08-06T00:13:56;9.75;;;5.07;;
37299;SDS011;23184;51.902;12.836;2023-08-06T00:16:21;8.77;;;4.88;;
37299;SDS011;23184;51.902;12.836;2023-08-06T00:18:47;9.02;;;4.95;;
37299;SDS011;23184;51.902;12.836;2023-08-06T00:21:12;7.72;;;4.68;;
37299;SDS011;23184;51.902;12.836;2023-08-06T00:23:38;6.13;;;4.68;;
37299;SDS011;23184;51.902;12.836;2023-08-06T00:26:04;10.30;;;4.80;;
37299;SDS011;23184;51.902;12.836;2023-08-06T00:28:30;9.40;;;4.88;;
37299;SDS011;23184;51.902;12.836;2023-08-06T00:30:55;8.50;;;4.57;;
37299;SDS011;23184;51.902;12.836;2023-08-06T00:33:21;7.35;;;4.65;;
37299;SDS011;23184;51.902;12.836;2023-08-06T00:35:48;9.13;;;5.13;;
37299;SDS011;23184;51.902;12.836;2023-08-06T00:38:13;6.82;;;4.80;;
37299;SDS011;23184;51.902;12.836;2023-08-06T00:40:39;11.75;;;5.00;;
37299;SDS011;23184;51.902;12.836;2023-08-06T00:43:04;8.05;;;4.93;;
37299;SDS011;23184;51.902;12.836;2023-08-06T00:45:30;8.68;;;4.90;;
37299;SDS011;23184;51.902;12.836;2023-08-06T00:47:58;10.15;;;5.55;;
37299;SDS011;23184;51.902;12.836;2023-08-06T00:50:25;8.25;;;5.35;;
37299;SDS011;23184;51.902;12.836;2023-08-06T00:52:51;9.60;;;5.72;;
37299;SDS011;23184;51.902;12.836;2023-08-06T00:55:17;8.68;;;5.22;;
37299;SDS011;23184;51.902;12.836;2023-08-06T00:57:43;8.40;;;5.13;;
37299;SDS011;23184;51.902;12.836;2023-08-06T01:00:09;8.63;;;4.95;;
37299;SDS011;23184;51.902;12.836;2023-08-06T01:02:35;7.32;;;4.70;;
37299;SDS011;23184;51.902;12.836;2023-08-06T01:05:01;8.25;;;5.22;;
37299;SDS011;23184;51.902;12.836;2023-08-06T01:10:10;9.38;;;6.13;;
37299;SDS011;23184;51.902;12.836;2023-08-06T01:12:48;10.20;;;5.70;;
37299;SDS011;23184;51.902;12.836;2023-08-06T01:15:28;10.27;;;6.00;;
37299;SDS011;23184;51.902;12.836;2023-08-06T01:17:57;8.30;;;5.70;;
37299;SDS011;23184;51.902;12.836;2023-08-06T01:20:30;10.77;;;6.10;;
37299;SDS011;23184;51.902;12.836;2023-08-06T01:22:56;8.55;;;6.40;;
37299;SDS011;23184;51.902;12.836;2023-08-06T01:25:22;10.90;;;6.15;;
37299;SDS011;23184;51.902;12.836;2023-08-06T01:28:09;10.65;;;6.68;;
37299;SDS011;23184;51.902;12.836;2023-08-06T01:30:52;11.32;;;7.00;;
37299;SDS011;23184;51.902;12.836;2023-08-06T01:33:24;10.40;;;6.90;;
37299;SDS011;23184;51.902;12.836;2023-08-06T01:35:50;15.55;;;6.65;;
37299;SDS011;23184;51.902;12.836;2023-08-06T01:38:18;12.25;;;6.85;;
37299;SDS011;23184;51.902;12.836;2023-08-06T01:40:44;9.90;;;7.05;;
37299;SDS011;23184;51.902;12.836;2023-08-06T01:43:09;9.90;;;6.47;;
37299;SDS011;23184;51.902;12.836;2023-08-06T01:45:35;8.57;;;7.15;;
37299;SDS011;23184;51.902;12.836;2023-08-06T01:48:01;10.05;;;7.03;;
37299;SDS011;23184;51.902;12.836;2023-08-06T01:50:26;8.32;;;6.35;;
37299;SDS011;23184;51.902;12.836;2023-08-06T01:52:52;10.63;;;7.32;;
37299;SDS011;23184;51.902;12.836;2023-08-06T01:55:17;9.52;;;6.53;;
37299;SDS011;23184;51.902;12.836;2023-08-06T01:57:43;10.63;;;7.60;;
37299;SDS011;23184;51.902;12.836;2023-08-06T02:00:09;9.27;;;6.80;;
37299;SDS011;23184;51.902;12.836;2023-08-06T02:02:35;8.57;;;6.85;;
37299;SDS011;23184;51.902;12.836;2023-08-06T02:05:00;13.38;;;7.68;;
37299;SDS011;23184;51.902;12.836;2023-08-06T02:07:26;11.13;;;7.20;;
37299;SDS011;23184;51.902;12.836;2023-08-06T02:09:51;10.48;;;7.20;;
37299;SDS011;23184;51.902;12.836;2023-08-06T02:12:17;13.10;;;7.57;;
37299;SDS011;23184;51.902;12.836;2023-08-06T02:14:42;13.00;;;8.25;;
37299;SDS011;23184;51.902;12.836;2023-08-06T02:17:08;13.60;;;7.70;;
37299;SDS011;23184;51.902;12.836;2023-08-06T02:19:33;14.93;;;8.13;;
37299;SDS011;23184;51.902;12.836;2023-08-06T02:21:59;11.20;;;8.10;;
37299;SDS011;23184;51.902;12.836;2023-08-06T02:24:24;12.75;;;9.00;;
37299;SDS011;23184;51.902;12.836;2023-08-06T02:26:50;12.05;;;8.48;;
37299;SDS011;23184;51.902;12.836;2023-08-06T02:29:16;13.15;;;9.65;;
37299;SDS011;23184;51.902;12.836;2023-08-06T02:31:42;13.73;;;10.10;;
37299;SDS011;23184;51.902;12.836;2023-08-06T02:34:08;14.38;;;9.80;;
37299;SDS011;23184;51.902;12.836;2023-08-06T02:36:33;13.23;;;9.52;;
37299;SDS011;23184;51.902;12.836;2023-08-06T02:38:58;12.50;;;9.63;;
37299;SDS011;23184;51.902;12.836;2023-08-06T02:41:24;11.57;;;9.30;;
37299;SDS011;23184;51.902;12.836;2023-08-06T02:43:50;13.93;;;10.13;;
37299;SDS011;23184;51.902;12.836;2023-08-06T02:46:15;12.98;;;10.05;;
37299;SDS011;23184;51.902;12.836;2023-08-06T02:48:41;12.60;;;9.48;;
37299;SDS011;23184;51.902;12.836;2023-08-06T02:51:06;15.98;;;9.80;;
37299;SDS011;23184;51.902;12.836;2023-08-06T02:53:32;13.43;;;10.20;;
37299;SDS011;23184;51.902;12.836;2023-08-06T02:55:57;12.50;;;9.35;;
37299;SDS011;23184;51.902;12.836;2023-08-06T02:58:23;14.23;;;9.80;;
37299;SDS011;23184;51.902;12.836;2023-08-06T03:00:59;11.30;;;9.13;;
37299;SDS011;23184;51.902;12.836;2023-08-06T03:03:25;11.63;;;10.10;;
37299;SDS011;23184;51.902;12.836;2023-08-06T03:05:52;13.95;;;10.55;;
37299;SDS011;23184;51.902;12.836;2023-08-06T03:08:18;13.20;;;10.68;;
37299;SDS011;23184;51.902;12.836;2023-08-06T03:10:47;11.13;;;9.43;;
37299;SDS011;23184;51.902;12.836;2023-08-06T03:13:13;13.52;;;10.52;;
37299;SDS011;23184;51.902;12.836;2023-08-06T03:15:38;14.60;;;10.30;;
37299;SDS011;23184;51.902;12.836;2023-08-06T03:18:04;13.68;;;10.18;;
37299;SDS011;23184;51.902;12.836;2023-08-06T03:20:30;14.85;;;10.05;;
37299;SDS011;23184;51.902;12.836;2023-08-06T03:22:57;12.50;;;10.50;;
37299;SDS011;23184;51.902;12.836;2023-08-06T03:25:22;13.05;;;9.45;;
37299;SDS011;23184;51.902;12.836;2023-08-06T03:27:48;12.10;;;9.82;;
37299;SDS011;23184;51.902;12.836;2023-08-06T03:30:14;14.00;;;9.70;;
37299;SDS011;23184;51.902;12.836;2023-08-06T03:32:40;12.93;;;9.30;;
37299;SDS011;23184;51.902;12.836;2023-08-06T03:35:05;12.25;;;9.30;;
37299;SDS011;23184;51.902;12.836;2023-08-06T03:37:31;11.30;;;8.50;;
37299;SDS011;23184;51.902;12.836;2023-08-06T03:39:57;11.32;;;8.93;;
37299;SDS011;23184;51.902;12.836;2023-08-06T03:42:22;13.18;;;8.20;;
37299;SDS011;23184;51.902;12.836;2023-08-06T03:44:48;14.10;;;8.90;;
37299;SDS011;23184;51.902;12.836;2023-08-06T03:47:13;9.60;;;7.95;;
37299;SDS011;23184;51.902;12.836;2023-08-06T03:49:39;11.38;;;8.32;;
37299;SDS011;23184;51.902;12.836;2023-08-06T03:52:05;11.23;;;8.10;;
37299;SDS011;23184;51.902;12.836;2023-08-06T03:54:30;10.07;;;8.05;;
37299;SDS011;23184;51.902;12.836;2023-08-06T03:56:56;13.55;;;9.05;;
37299;SDS011;23184;51.902;12.836;2023-08-06T03:59:22;13.70;;;10.23;;
37299;SDS011;23184;51.902;12.836;2023-08-06T04:01:47;11.23;;;9.13;;
37299;SDS011;23184;51.902;12.836;2023-08-06T04:04:12;13.02;;;9.50;;
37299;SDS011;23184;51.902;12.836;2023-08-06T04:06:38;12.35;;;8.90;;
37299;SDS011;23184;51.902;12.836;2023-08-06T04:09:03;12.93;;;9.05;;
37299;SDS011;23184;51.902;12.836;2023-08-06T04:11:29;12.73;;;9.20;;
37299;SDS011;23184;51.902;12.836;2023-08-06T04:13:54;14.07;;;10.05;;
37299;SDS011;23184;51.902;12.836;2023-08-06T04:16:20;11.70;;;9.15;;
37299;SDS011;23184;51.902;12.836;2023-08-06T04:18:46;15.63;;;9.55;;
37299;SDS011;23184;51.902;12.836;2023-08-06T04:21:12;13.07;;;9.40;;
37299;SDS011;23184;51.902;12.836;2023-08-06T04:23:38;16.05;;;9.57;;
37299;SDS011;23184;51.902;12.836;2023-08-06T04:26:03;11.95;;;9.70;;
37299;SDS011;23184;51.902;12.836;2023-08-06T04:28:29;12.10;;;9.70;;
37299;SDS011;23184;51.902;12.836;2023-08-06T04:30:55;12.65;;;9.88;;
37299;SDS011;23184;51.902;12.836;2023-08-06T04:33:20;14.07;;;9.65;;
37299;SDS011;23184;51.902;12.836;2023-08-06T04:35:46;11.25;;;9.55;;
37299;SDS011;23184;51.902;12.836;2023-08-06T04:38:11;12.77;;;9.32;;
37299;SDS011;23184;51.902;12.836;2023-08-06T04:40:37;11.15;;;8.38;;
37299;SDS011;23184;51.902;12.836;2023-08-06T04:43:02;10.88;;;9.73;;
37299;SDS011;23184;51.902;12.836;2023-08-06T04:45:28;11.52;;;9.55;;
37299;SDS011;23184;51.902;12.836;2023-08-06T04:47:54;11.88;;;9.07;;
37299;SDS011;23184;51.902;12.836;2023-08-06T04:50:19;11.65;;;9.27;;
37299;SDS011;23184;51.902;12.836;2023-08-06T04:52:45;10.38;;;8.82;;
37299;SDS011;23184;51.902;12.836;2023-08-06T04:55:10;13.93;;;9.55;;
37299;SDS011;23184;51.902;12.836;2023-08-06T04:57:36;10.57;;;8.30;;
37299;SDS011;23184;51.902;12.836;2023-08-06T05:00:02;13.77;;;9.20;;
37299;SDS011;23184;51.902;12.836;2023-08-06T05:02:28;11.52;;;8.50;;
37299;SDS011;23184;51.902;12.836;2023-08-06T05:04:53;11.38;;;9.57;;
37299;SDS011;23184;51.902;12.836;2023-08-06T05:07:19;10.95;;;8.95;;
37299;SDS011;23184;51.902;12.836;2023-08-06T05:09:44;13.07;;;9.88;;
37299;SDS011;23184;51.902;12.836;2023-08-06T05:12:10;13.27;;;9.73;;
37299;SDS011;23184;51.902;12.836;2023-08-06T05:14:36;12.00;;;10.15;;
37299;SDS011;23184;51.902;12.836;2023-08-06T05:17:01;13.90;;;9.25;;
37299;SDS011;23184;51.902;12.836;2023-08-06T05:19:29;13.90;;;10.70;;
37299;SDS011;23184;51.902;12.836;2023-08-06T05:21:54;13.93;;;10.85;;
37299;SDS011;23184;51.902;12.836;2023-08-06T05:24:20;11.98;;;9.93;;
37299;SDS011;23184;51.902;12.836;2023-08-06T05:26:45;11.88;;;10.32;;
37299;SDS011;23184;51.902;12.836;2023-08-06T05:29:12;13.25;;;9.88;;
37299;SDS011;23184;51.902;12.836;2023-08-06T05:31:38;13.18;;;10.43;;
37299;SDS011;23184;51.902;12.836;2023-08-06T05:34:03;11.98;;;10.23;;
37299;SDS011;23184;51.902;12.836;2023-08-06T05:36:29;13.55;;;10.40;;
37299;SDS011;23184;51.902;12.836;2023-08-06T05:38:54;13.60;;;10.80;;
37299;SDS011;23184;51.902;12.836;2023-08-06T05:41:20;14.15;;;10.05;;
37299;SDS011;23184;51.902;12.836;2023-08-06T05:43:45;11.82;;;9.20;;
37299;SDS011;23184;51.902;12.836;2023-08-06T05:46:11;11.73;;;9.73;;
37299;SDS011;23184;51.902;12.836;2023-08-06T05:48:36;10.85;;;9.02;;
37299;SDS011;23184;51.902;12.836;2023-08-06T05:51:02;11.73;;;9.82;;
37299;SDS011;23184;51.902;12.836;2023-08-06T05:53:27;11.75;;;10.10;;
37299;SDS011;23184;51.902;12.836;2023-08-06T05:55:53;12.23;;;9.77;;
37299;SDS011;23184;51.902;12.836;2023-08-06T05:58:18;11.65;;;9.70;;
37299;SDS011;23184;51.902;12.836;2023-08-06T06:00:45;13.20;;;10.57;;
37299;SDS011;23184;51.902;12.836;2023-08-06T06:03:10;14.93;;;9.73;;
37299;SDS011;23184;51.902;12.836;2023-08-06T06:05:39;12.70;;;8.15;;
37299;SDS011;23184;51.902;12.836;2023-08-06T06:08:05;11.00;;;9.23;;
37299;SDS011;23184;51.902;12.836;2023-08-06T06:10:30;10.55;;;9.02;;
37299;SDS011;23184;51.902;12.836;2023-08-06T06:12:56;11.90;;;8.90;;
37299;SDS011;23184;51.902;12.836;2023-08-06T06:15:21;9.52;;;8.52;;
37299;SDS011;23184;51.902;12.836;2023-08-06T06:17:47;10.55;;;8.20;;
37299;SDS011;23184;51.902;12.836;2023-08-06T06:20:12;10.13;;;8.15;;
37299;SDS011;23184;51.902;12.836;2023-08-06T06:22:38;9.93;;;8.00;;
37299;SDS011;23184;51.902;12.836;2023-08-06T06:25:04;10.60;;;7.93;;
37299;SDS011;23184;51.902;12.836;2023-08-06T06:27:30;9.82;;;7.47;;
37299;SDS011;23184;51.902;12.836;2023-08-06T06:29:55;9.70;;;7.60;;
37299;SDS011;23184;51.902;12.836;2023-08-06T06:32:21;8.77;;;7.28;;
37299;SDS011;23184;51.902;12.836;2023-08-06T06:34:47;9.40;;;6.93;;
37299;SDS011;23184;51.902;12.836;2023-08-06T06:37:12;8.32;;;7.00;;
37299;SDS011;23184;51.902;12.836;2023-08-06T06:39:38;8.05;;;6.95;;
37299;SDS011;23184;51.902;12.836;2023-08-06T06:42:03;8.77;;;7.03;;
37299;SDS011;23184;51.902;12.836;2023-08-06T06:44:29;8.77;;;6.70;;
37299;SDS011;23184;51.902;12.836;2023-08-06T06:46:55;8.02;;;7.13;;
37299;SDS011;23184;51.902;12.836;2023-08-06T06:49:20;8.98;;;7.57;;
37299;SDS011;23184;51.902;12.836;2023-08-06T06:51:46;10.30;;;6.88;;
37299;SDS011;23184;51.902;12.836;2023-08-06T06:54:11;8.90;;;7.07;;
37299;SDS011;23184;51.902;12.836;2023-08-06T06:56:37;9.68;;;7.90;;
37299;SDS011;23184;51.902;12.836;2023-08-06T06:59:02;9.50;;;7.90;;
37299;SDS011;23184;51.902;12.836;2023-08-06T07:01:28;8.77;;;7.55;;
37299;SDS011;23184;51.902;12.836;2023-08-06T07:03:53;9.32;;;7.20;;
37299;SDS011;23184;51.902;12.836;2023-08-06T07:06:19;8.75;;;7.30;;
37299;SDS011;23184;51.902;12.836;2023-08-06T07:08:45;6.78;;;5.95;;
37299;SDS011;23184;51.902;12.836;2023-08-06T07:11:10;7.55;;;6.28;;
37299;SDS011;23184;51.902;12.836;2023-08-06T07:13:36;8.27;;;5.97;;
37299;SDS011;23184;51.902;12.836;2023-08-06T07:16:01;9.27;;;6.43;;
37299;SDS011;23184;51.902;12.836;2023-08-06T07:18:27;7.40;;;5.57;;
37299;SDS011;23184;51.902;12.836;2023-08-06T07:20:53;7.63;;;5.50;;
37299;SDS011;23184;51.902;12.836;2023-08-06T07:23:23;6.88;;;5.93;;
37299;SDS011;23184;51.902;12.836;2023-08-06T07:25:49;5.45;;;4.95;;
37299;SDS011;23184;51.902;12.836;2023-08-06T07:28:15;8.85;;;6.10;;
37299;SDS011;23184;51.902;12.836;2023-08-06T07:30:41;6.03;;;5.00;;
37299;SDS011;23184;51.902;12.836;2023-08-06T07:33:08;6.43;;;5.07;;
37299;SDS011;23184;51.902;12.836;2023-08-06T07:35:34;7.00;;;5.45;;
37299;SDS011;23184;51.902;12.836;2023-08-06T07:38:00;6.40;;;5.00;;
37299;SDS011;23184;51.902;12.836;2023-08-06T07:40:25;6.38;;;5.38;;
37299;SDS011;23184;51.902;12.836;2023-08-06T07:42:51;6.30;;;5.15;;
37299;SDS011;23184;51.902;12.836;2023-08-06T07:45:16;6.55;;;5.53;;
37299;SDS011;23184;51.902;12.836;2023-08-06T07:47:42;6.78;;;5.53;;
37299;SDS011;23184;51.902;12.836;2023-08-06T07:50:08;6.18;;;5.28;;
37299;SDS011;23184;51.902;12.836;2023-08-06T07:52:34;7.72;;;5.82;;
37299;SDS011;23184;51.902;12.836;2023-08-06T07:54:59;6.35;;;5.38;;
37299;SDS011;23184;51.902;12.836;2023-08-06T07:57:26;8.02;;;5.88;;
37299;SDS011;23184;51.902;12.836;2023-08-06T07:59:52;7.28;;;5.65;;
37299;SDS011;23184;51.902;12.836;2023-08-06T08:02:18;6.55;;;5.60;;
37299;SDS011;23184;51.902;12.836;2023-08-06T08:04:44;7.80;;;5.88;;
37299;SDS011;23184;51.902;12.836;2023-08-06T08:07:12;8.75;;;6.43;;
37299;SDS011;23184;51.902;12.836;2023-08-06T08:09:37;6.90;;;5.88;;
37299;SDS011;23184;51.902;12.836;2023-08-06T08:12:03;7.65;;;6.85;;
37299;SDS011;23184;51.902;12.836;2023-08-06T08:14:29;7.63;;;6.80;;
37299;SDS011;23184;51.902;12.836;2023-08-06T08:17:00;7.20;;;6.45;;
37299;SDS011;23184;51.902;12.836;2023-08-06T08:19:26;9.38;;;6.95;;
37299;SDS011;23184;51.902;12.836;2023-08-06T08:21:53;7.68;;;6.88;;
37299;SDS011;23184;51.902;12.836;2023-08-06T08:24:19;7.57;;;6.57;;
37299;SDS011;23184;51.902;12.836;2023-08-06T08:26:45;8.50;;;7.40;;
37299;SDS011;23184;51.902;12.836;2023-08-06T08:29:10;8.43;;;7.22;;
37299;SDS011;23184;51.902;12.836;2023-08-06T08:31:36;8.98;;;7.82;;
37299;SDS011;23184;51.902;12.836;2023-08-06T08:34:04;9.23;;;7.68;;
37299;SDS011;23184;51.902;12.836;2023-08-06T08:36:30;11.32;;;7.70;;
37299;SDS011;23184;51.902;12.836;2023-08-06T08:38:56;10.00;;;8.82;;
37299;SDS011;23184;51.902;12.836;2023-08-06T08:41:21;10.13;;;8.55;;
37299;SDS011;23184;51.902;12.836;2023-08-06T08:43:47;11.38;;;8.98;;
37299;SDS011;23184;51.902;12.836;2023-08-06T08:46:15;10.70;;;8.85;;
37299;SDS011;23184;51.902;12.836;2023-08-06T08:48:42;10.20;;;9.18;;
37299;SDS011;23184;51.902;12.836;2023-08-06T08:51:08;10.90;;;8.55;;
37299;SDS011;23184;51.902;12.836;2023-08-06T08:53:35;13.27;;;9.65;;
37299;SDS011;23184;51.902;12.836;2023-08-06T08:56:03;10.05;;;9.05;;
37299;SDS011;23184;51.902;12.836;2023-08-06T08:58:30;11.75;;;10.48;;
37299;SDS011;23184;51.902;12.836;2023-08-06T09:00:56;21.63;;;10.55;;
37299;SDS011;23184;51.902;12.836;2023-08-06T09:03:22;12.65;;;9.75;;
37299;SDS011;23184;51.902;12.836;2023-08-06T09:05:49;11.02;;;9.55;;
37299;SDS011;23184;51.902;12.836;2023-08-06T09:08:18;12.48;;;9.88;;
37299;SDS011;23184;51.902;12.836;2023-08-06T09:10:49;10.35;;;9.07;;
37299;SDS011;23184;51.902;12.836;2023-08-06T09:13:17;12.80;;;9.85;;
37299;SDS011;23184;51.902;12.836;2023-08-06T09:15:42;9.93;;;8.93;;
37299;SDS011;23184;51.902;12.836;2023-08-06T09:18:09;11.90;;;10.15;;
37299;SDS011;23184;51.902;12.836;2023-08-06T09:20:37;9.50;;;8.40;;
37299;SDS011;23184;51.902;12.836;2023-08-06T09:23:09;12.80;;;8.70;;
37299;SDS011;23184;51.902;12.836;2023-08-06T09:25:37;10.73;;;8.63;;
37299;SDS011;23184;51.902;12.836;2023-08-06T09:28:06;11.55;;;9.68;;
37299;SDS011;23184;51.902;12.836;2023-08-06T09:30:33;10.80;;;9.70;;
37299;SDS011;23184;51.902;12.836;2023-08-06T09:33:00;11.48;;;9.50;;
37299;SDS011;23184;51.902;12.836;2023-08-06T09:35:32;11.25;;;9.07;;
37299;SDS011;23184;51.902;12.836;2023-08-06T09:38:07;9.75;;;8.75;;
37299;SDS011;23184;51.902;12.836;2023-08-06T09:40:34;12.80;;;9.45;;
37299;SDS011;23184;51.902;12.836;2023-08-06T09:43:00;11.65;;;9.10;;
37299;SDS011;23184;51.902;12.836;2023-08-06T09:45:32;10.85;;;7.93;;
37299;SDS011;23184;51.902;12.836;2023-08-06T09:47:59;8.60;;;6.88;;
37299;SDS011;23184;51.902;12.836;2023-08-06T09:50:29;7.57;;;6.53;;
37299;SDS011;23184;51.902;12.836;2023-08-06T09:53:01;10.10;;;7.65;;
37299;SDS011;23184;51.902;12.836;2023-08-06T09:55:28;7.72;;;6.97;;
37299;SDS011;23184;51.902;12.836;2023-08-06T09:57:53;8.07;;;6.78;;
37299;SDS011;23184;51.902;12.836;2023-08-06T10:00:19;9.38;;;7.18;;
37299;SDS011;23184;51.902;12.836;2023-08-06T10:02:46;10.27;;;7.45;;
37299;SDS011;23184;51.902;12.836;2023-08-06T10:05:12;9.57;;;7.43;;
37299;SDS011;23184;51.902;12.836;2023-08-06T10:07:37;10.02;;;6.80;;
37299;SDS011;23184;51.902;12.836;2023-08-06T10:10:05;7.55;;;6.75;;
37299;SDS011;23184;51.902;12.836;2023-08-06T10:12:34;7.30;;;6.35;;
37299;SDS011;23184;51.902;12.836;2023-08-06T10:15:05;10.27;;;6.95;;
37299;SDS011;23184;51.902;12.836;2023-08-06T10:17:34;7.50;;;6.30;;
37299;SDS011;23184;51.902;12.836;2023-08-06T10:20:02;8.05;;;6.18;;
37299;SDS011;23184;51.902;12.836;2023-08-06T10:22:33;7.10;;;6.40;;
37299;SDS011;23184;51.902;12.836;2023-08-06T10:24:59;9.20;;;6.82;;
37299;SDS011;23184;51.902;12.836;2023-08-06T10:27:33;8.25;;;6.82;;
37299;SDS011;23184;51.902;12.836;2023-08-06T10:32:47;9.30;;;7.13;;
37299;SDS011;23184;51.902;12.836;2023-08-06T10:35:27;7.25;;;6.45;;
37299;SDS011;23184;51.902;12.836;2023-08-06T10:40:40;8.80;;;7.57;;
37299;SDS011;23184;51.902;12.836;2023-08-06T10:43:07;11.77;;;7.63;;
37299;SDS011;23184;51.902;12.836;2023-08-06T10:45:35;9.73;;;6.55;;
37299;SDS011;23184;51.902;12.836;2023-08-06T10:48:01;8.98;;;5.95;;
37299;SDS011;23184;51.902;12.836;2023-08-06T10:50:28;7.60;;;6.43;;
37299;SDS011;23184;51.902;12.836;2023-08-06T10:52:54;10.52;;;7.13;;
37299;SDS011;23184;51.902;12.836;2023-08-06T10:55:24;8.15;;;6.55;;
37299;SDS011;23184;51.902;12.836;2023-08-06T10:57:50;8.82;;;7.03;;
37299;SDS011;23184;51.902;12.836;2023-08-06T11:00:16;8.52;;;6.22;;
37299;SDS011;23184;51.902;12.836;2023-08-06T11:02:42;8.38;;;6.43;;
37299;SDS011;23184;51.902;12.836;2023-08-06T11:05:09;8.63;;;6.40;;
37299;SDS011;23184;51.902;12.836;2023-08-06T11:07:36;9.48;;;6.47;;
37299;SDS011;23184;51.902;12.836;2023-08-06T11:10:05;7.82;;;6.72;;
37299;SDS011;23184;51.902;12.836;2023-08-06T11:12:34;13.00;;;7.82;;
37299;SDS011;23184;51.902;12.836;2023-08-06T11:15:00;13.93;;;9.10;;
37299;SDS011;23184;51.902;12.836;2023-08-06T11:17:30;14.88;;;9.55;;
37299;SDS011;23184;51.902;12.836;2023-08-06T11:19:58;10.50;;;8.95;;
37299;SDS011;23184;51.902;12.836;2023-08-06T11:22:25;15.82;;;10.50;;
37299;SDS011;23184;51.902;12.836;2023-08-06T11:24:52;14.73;;;11.15;;
37299;SDS011;23184;51.902;12.836;2023-08-06T11:27:18;18.83;;;13.27;;
37299;SDS011;23184;51.902;12.836;2023-08-06T11:29:44;20.17;;;14.77;;
37299;SDS011;23184;51.902;12.836;2023-08-06T11:32:09;19.13;;;15.00;;
37299;SDS011;23184;51.902;12.836;2023-08-06T11:34:36;19.45;;;14.40;;
37299;SDS011;23184;51.902;12.836;2023-08-06T11:37:05;19.10;;;15.57;;
37299;SDS011;23184;51.902;12.836;2023-08-06T11:39:32;20.77;;;15.55;;
37299;SDS011;23184;51.902;12.836;2023-08-06T11:41:59;24.13;;;16.63;;
37299;SDS011;23184;51.902;12.836;2023-08-06T11:44:29;22.63;;;15.98;;
37299;SDS011;23184;51.902;12.836;2023-08-06T11:46:56;16.17;;;13.80;;
37299;SDS011;23184;51.902;12.836;2023-08-06T11:52:22;14.18;;;11.55;;
37299;SDS011;23184;51.902;12.836;2023-08-06T11:55:05;15.68;;;12.48;;
37299;SDS011;23184;51.902;12.836;2023-08-06T11:57:33;16.52;;;9.88;;
37299;SDS011;23184;51.902;12.836;2023-08-06T12:00:03;13.27;;;8.38;;
37299;SDS011;23184;51.902;12.836;2023-08-06T12:02:33;14.90;;;10.70;;
37299;SDS011;23184;51.902;12.836;2023-08-06T12:05:04;10.43;;;8.45;;
37299;SDS011;23184;51.902;12.836;2023-08-06T12:07:44;15.65;;;10.00;;
37299;SDS011;23184;51.902;12.836;2023-08-06T12:10:14;11.70;;;9.63;;
37299;SDS011;23184;51.902;12.836;2023-08-06T12:12:40;12.65;;;9.80;;
37299;SDS011;23184;51.902;12.836;2023-08-06T12:15:06;14.25;;;9.65;;
37299;SDS011;23184;51.902;12.836;2023-08-06T12:17:33;11.75;;;9.05;;
37299;SDS011;23184;51.902;12.836;2023-08-06T12:19:59;11.32;;;8.98;;
37299;SDS011;23184;51.902;12.836;2023-08-06T12:22:25;12.80;;;8.70;;
37299;SDS011;23184;51.902;12.836;2023-08-06T12:24:51;9.95;;;8.02;;
37299;SDS011;23184;51.902;12.836;2023-08-06T12:27:17;9.00;;;7.82;;
37299;SDS011;23184;51.902;12.836;2023-08-06T12:29:47;11.32;;;9.55;;
37299;SDS011;23184;51.902;12.836;2023-08-06T12:32:13;8.82;;;7.45;;
37299;SDS011;23184;51.902;12.836;2023-08-06T12:34:40;12.35;;;8.27;;
37299;SDS011;23184;51.902;12.836;2023-08-06T12:37:07;9.70;;;7.05;;
37299;SDS011;23184;51.902;12.836;2023-08-06T12:39:33;8.55;;;7.25;;
37299;SDS011;23184;51.902;12.836;2023-08-06T12:42:00;13.02;;;8.48;;
37299;SDS011;23184;51.902;12.836;2023-08-06T12:44:26;9.20;;;7.65;;
37299;SDS011;23184;51.902;12.836;2023-08-06T12:46:52;8.93;;;7.82;;
37299;SDS011;23184;51.902;12.836;2023-08-06T12:49:18;9.05;;;7.88;;
37299;SDS011;23184;51.902;12.836;2023-08-06T12:51:46;10.52;;;8.15;;
37299;SDS011;23184;51.902;12.836;2023-08-06T12:54:16;12.57;;;9.02;;
37299;SDS011;23184;51.902;12.836;2023-08-06T12:56:42;8.38;;;7.20;;
37299;SDS011;23184;51.902;12.836;2023-08-06T12:59:08;8.98;;;6.25;;
37299;SDS011;23184;51.902;12.836;2023-08-06T13:01:33;8.75;;;6.22;;
37299;SDS011;23184;51.902;12.836;2023-08-06T13:03:59;9.98;;;6.63;;
37299;SDS011;23184;51.902;12.836;2023-08-06T13:06:25;8.27;;;5.57;;
37299;SDS011;23184;51.902;12.836;2023-08-06T13:08:51;7.38;;;5.22;;
37299;SDS011;23184;51.902;12.836;2023-08-06T13:11:16;7.05;;;5.22;;
37299;SDS011;23184;51.902;12.836;2023-08-06T13:13:42;8.80;;;5.30;;
37299;SDS011;23184;51.902;12.836;2023-08-06T13:16:07;9.32;;;5.50;;
37299;SDS011;23184;51.902;12.836;2023-08-06T13:18:33;8.43;;;5.10;;
37299;SDS011;23184;51.902;12.836;2023-08-06T13:20:59;7.22;;;5.32;;
37299;SDS011;23184;51.902;12.836;2023-08-06T13:23:24;10.77;;;5.38;;
37299;SDS011;23184;51.902;12.836;2023-08-06T13:25:50;10.38;;;6.20;;
37299;SDS011;23184;51.902;12.836;2023-08-06T13:28:15;9.68;;;5.93;;
37299;SDS011;23184;51.902;12.836;2023-08-06T13:30:41;7.70;;;6.20;;
37299;SDS011;23184;51.902;12.836;2023-08-06T13:33:09;8.80;;;6.93;;
37299;SDS011;23184;51.902;12.836;2023-08-06T13:35:35;6.93;;;5.95;;
37299;SDS011;23184;51.902;12.836;2023-08-06T13:38:01;5.68;;;4.88;;
37299;SDS011;23184;51.902;12.836;2023-08-06T13:40:32;6.35;;;4.93;;
37299;SDS011;23184;51.902;12.836;2023-08-06T13:42:59;8.13;;;5.03;;
37299;SDS011;23184;51.902;12.836;2023-08-06T13:45:24;6.25;;;5.38;;
37299;SDS011;23184;51.902;12.836;2023-08-06T13:47:50;8.82;;;6.93;;
37299;SDS011;23184;51.902;12.836;2023-08-06T13:50:16;10.50;;;7.80;;
37299;SDS011;23184;51.902;12.836;2023-08-06T13:52:41;8.30;;;7.30;;
37299;SDS011;23184;51.902;12.836;2023-08-06T13:55:07;9.48;;;7.10;;
37299;SDS011;23184;51.902;12.836;2023-08-06T13:57:34;8.82;;;7.43;;
37299;SDS011;23184;51.902;12.836;2023-08-06T13:59:59;10.35;;;7.72;;
37299;SDS011;23184;51.902;12.836;2023-08-06T14:02:25;11.05;;;6.35;;
37299;SDS011;23184;51.902;12.836;2023-08-06T14:04:53;9.38;;;6.60;;
37299;SDS011;23184;51.902;12.836;2023-08-06T14:07:19;7.15;;;5.32;;
37299;SDS011;23184;51.902;12.836;2023-08-06T14:09:45;5.57;;;4.63;;
37299;SDS011;23184;51.902;12.836;2023-08-06T14:12:12;6.38;;;4.50;;
37299;SDS011;23184;51.902;12.836;2023-08-06T14:14:37;5.47;;;4.63;;
37299;SDS011;23184;51.902;12.836;2023-08-06T14:17:03;5.10;;;4.60;;
37299;SDS011;23184;51.902;12.836;2023-08-06T14:19:28;7.72;;;5.13;;
37299;SDS011;23184;51.902;12.836;2023-08-06T14:21:54;9.55;;;5.03;;
37299;SDS011;23184;51.902;12.836;2023-08-06T14:24:20;6.43;;;4.97;;
37299;SDS011;23184;51.902;12.836;2023-08-06T14:26:46;5.43;;;4.50;;
37299;SDS011;23184;51.902;12.836;2023-08-06T14:29:11;6.35;;;4.93;;
37299;SDS011;23184;51.902;12.836;2023-08-06T14:31:38;5.93;;;3.92;;
37299;SDS011;23184;51.902;12.836;2023-08-06T14:34:04;6.55;;;4.25;;